sensor_id;sensor_type;location;lat;lon;timestamp;temperature;humidity
12303;DHT22;6214;48.012;7.862;2023-08-24T00:01:39;22.80;99.90
12303;DHT22;6214;48.012;7.862;2023-08-24T00:04:06;22.70;99.90
12303;DHT22;6214;48.012;7.862;2023-08-24T00:06:34;22.60;99.90
12303;DHT22;6214;48.012;7.862;2023-08-24T00:09:01;22.60;99.90
12303;DHT22;6214;48.012;7.862;2023-08-24T00:11:28;22.60;99.90
12303;DHT22;6214;48.012;7.862;2023-08-24T00:13:54;22.60;99.90
12303;DHT22;6214;48.012;7.862;2023-08-24T00:16:21;22.70;99.90
12303;DHT22;6214;48.012;7.862;2023-08-24T00:18:48;22.60;99.90
12303;DHT22;6214;48.012;7.862;2023-08-24T00:21:15;22.60;99.90
12303;DHT22;6214;48.012;7.862;2023-08-24T00:23:43;22.70;99.90
12303;DHT22;6214;48.012;7.862;2023-08-24T00:26:11;22.60;99.90
12303;DHT22;6214;48.012;7.862;2023-08-24T00:28:38;22.60;99.90
12303;DHT22;6214;48.012;7.862;2023-08-24T00:31:04;22.50;99.90
12303;DHT22;6214;48.012;7.862;2023-08-24T00:33:31;22.50;99.90
12303;DHT22;6214;48.012;7.862;2023-08-24T00:36:01;22.50;99.90
12303;DHT22;6214;48.012;7.862;2023-08-24T00:38:29;22.50;99.90
12303;DHT22;6214;48.012;7.862;2023-08-24T00:40:56;22.50;99.90
12303;DHT22;6214;48.012;7.862;2023-08-24T00:43:23;22.60;99.90
12303;DHT22;6214;48.012;7.862;2023-08-24T00:45:51;22.40;99.90
12303;DHT22;6214;48.012;7.862;2023-08-24T00:48:19;22.20;99.90
12303;DHT22;6214;48.012;7.862;2023-08-24T00:50:47;22.20;99.90
12303;DHT22;6214;48.012;7.862;2023-08-24T00:53:14;22.20;99.90
12303;DHT22;6214;48.012;7.862;2023-08-24T00:55:40;22.10;99.90
12303;DHT22;6214;48.012;7.862;2023-08-24T00:58:07;22.10;99.90
12303;DHT22;6214;48.012;7.862;2023-08-24T01:00:34;22.10;99.90
12303;DHT22;6214;48.012;7.862;2023-08-24T01:03:01;21.90;99.90
12303;DHT22;6214;48.012;7.862;2023-08-24T01:05:28;22.00;99.90
12303;DHT22;6214;48.012;7.862;2023-08-24T01:07:56;22.10;99.90
12303;DHT22;6214;48.012;7.862;2023-08-24T01:10:24;22.20;99.90
12303;DHT22;6214;48.012;7.862;2023-08-24T01:13:08;22.00;99.90
12303;DHT22;6214;48.012;7.862;2023-08-24T01:15:47;22.00;99.90
12303;DHT22;6214;48.012;7.862;2023-08-24T01:18:16;22.10;99.90
12303;DHT22;6214;48.012;7.862;2023-08-24T01:20:47;22.10;99.90
12303;DHT22;6214;48.012;7.862;2023-08-24T01:23:48;22.10;99.90
12303;DHT22;6214;48.012;7.862;2023-08-24T01:26:17;22.00;99.90
12303;DHT22;6214;48.012;7.862;2023-08-24T01:28:45;22.00;99.90
12303;DHT22;6214;48.012;7.862;2023-08-24T01:31:15;22.00;99.90
12303;DHT22;6214;48.012;7.862;2023-08-24T01:33:44;21.90;99.90
12303;DHT22;6214;48.012;7.862;2023-08-24T01:36:13;21.90;99.90
12303;DHT22;6214;48.012;7.862;2023-08-24T01:38:40;21.90;99.90
12303;DHT22;6214;48.012;7.862;2023-08-24T01:41:19;22.10;99.90
12303;DHT22;6214;48.012;7.862;2023-08-24T01:43:52;22.10;99.90
12303;DHT22;6214;48.012;7.862;2023-08-24T01:46:21;21.90;99.90
12303;DHT22;6214;48.012;7.862;2023-08-24T01:48:48;22.00;99.90
12303;DHT22;6214;48.012;7.862;2023-08-24T01:51:16;22.00;99.90
12303;DHT22;6214;48.012;7.862;2023-08-24T01:53:43;22.00;99.90
12303;DHT22;6214;48.012;7.862;2023-08-24T01:56:12;22.00;99.90
12303;DHT22;6214;48.012;7.862;2023-08-24T01:58:39;22.10;99.90
12303;DHT22;6214;48.012;7.862;2023-08-24T02:01:08;22.10;99.90
12303;DHT22;6214;48.012;7.862;2023-08-24T02:03:35;22.00;99.90
12303;DHT22;6214;48.012;7.862;2023-08-24T02:06:02;22.10;99.90
12303;DHT22;6214;48.012;7.862;2023-08-24T02:08:29;22.00;99.90
12303;DHT22;6214;48.012;7.862;2023-08-24T02:10:56;22.10;99.90
12303;DHT22;6214;48.012;7.862;2023-08-24T02:13:23;22.10;99.90
12303;DHT22;6214;48.012;7.862;2023-08-24T02:15:50;22.10;99.90
12303;DHT22;6214;48.012;7.862;2023-08-24T02:18:17;22.10;99.90
12303;DHT22;6214;48.012;7.862;2023-08-24T02:20:44;22.00;99.90
12303;DHT22;6214;48.012;7.862;2023-08-24T02:23:11;22.10;99.90
12303;DHT22;6214;48.012;7.862;2023-08-24T02:25:42;22.20;99.90
12303;DHT22;6214;48.012;7.862;2023-08-24T02:28:10;22.10;99.90
12303;DHT22;6214;48.012;7.862;2023-08-24T02:30:37;22.20;99.90
12303;DHT22;6214;48.012;7.862;2023-08-24T02:33:05;22.20;99.90
12303;DHT22;6214;48.012;7.862;2023-08-24T02:35:32;22.20;99.90
12303;DHT22;6214;48.012;7.862;2023-08-24T02:37:59;22.10;99.90
12303;DHT22;6214;48.012;7.862;2023-08-24T02:40:26;22.00;99.90
12303;DHT22;6214;48.012;7.862;2023-08-24T02:42:53;22.20;99.90
12303;DHT22;6214;48.012;7.862;2023-08-24T02:45:20;22.20;99.90
12303;DHT22;6214;48.012;7.862;2023-08-24T02:47:47;22.20;99.90
12303;DHT22;6214;48.012;7.862;2023-08-24T02:50:15;22.20;99.90
12303;DHT22;6214;48.012;7.862;2023-08-24T02:52:42;22.20;99.90
12303;DHT22;6214;48.012;7.862;2023-08-24T02:55:09;22.10;99.90
12303;DHT22;6214;48.012;7.862;2023-08-24T02:57:36;22.20;99.90
12303;DHT22;6214;48.012;7.862;2023-08-24T03:00:04;22.40;99.90
12303;DHT22;6214;48.012;7.862;2023-08-24T03:02:33;22.40;99.90
12303;DHT22;6214;48.012;7.862;2023-08-24T03:05:00;22.40;99.90
12303;DHT22;6214;48.012;7.862;2023-08-24T03:07:27;22.50;99.90
12303;DHT22;6214;48.012;7.862;2023-08-24T03:09:54;22.40;99.90
12303;DHT22;6214;48.012;7.862;2023-08-24T03:12:21;22.40;99.90
12303;DHT22;6214;48.012;7.862;2023-08-24T03:14:51;22.20;99.90
12303;DHT22;6214;48.012;7.862;2023-08-24T03:17:20;22.10;99.90
12303;DHT22;6214;48.012;7.862;2023-08-24T03:19:47;22.10;99.90
12303;DHT22;6214;48.012;7.862;2023-08-24T03:22:14;22.10;99.90
12303;DHT22;6214;48.012;7.862;2023-08-24T03:24:41;21.90;99.90
12303;DHT22;6214;48.012;7.862;2023-08-24T03:27:08;21.90;99.90
12303;DHT22;6214;48.012;7.862;2023-08-24T03:29:35;21.90;99.90
12303;DHT22;6214;48.012;7.862;2023-08-24T03:32:02;21.90;99.90
12303;DHT22;6214;48.012;7.862;2023-08-24T03:34:29;21.70;99.90
12303;DHT22;6214;48.012;7.862;2023-08-24T03:36:57;21.60;99.90
12303;DHT22;6214;48.012;7.862;2023-08-24T03:39:24;21.50;99.90
12303;DHT22;6214;48.012;7.862;2023-08-24T03:41:51;21.60;99.90
12303;DHT22;6214;48.012;7.862;2023-08-24T03:44:18;21.60;99.90
12303;DHT22;6214;48.012;7.862;2023-08-24T03:46:45;21.60;99.90
12303;DHT22;6214;48.012;7.862;2023-08-24T03:49:12;21.70;99.90
12303;DHT22;6214;48.012;7.862;2023-08-24T03:51:39;21.60;99.90
12303;DHT22;6214;48.012;7.862;2023-08-24T03:54:06;21.50;99.90
12303;DHT22;6214;48.012;7.862;2023-08-24T03:56:33;21.40;99.90
12303;DHT22;6214;48.012;7.862;2023-08-24T03:59:00;21.40;99.90
12303;DHT22;6214;48.012;7.862;2023-08-24T04:01:27;21.40;99.90
12303;DHT22;6214;48.012;7.862;2023-08-24T04:03:54;21.50;99.90
12303;DHT22;6214;48.012;7.862;2023-08-24T04:06:21;21.70;99.90
12303;DHT22;6214;48.012;7.862;2023-08-24T04:08:48;21.70;99.90
12303;DHT22;6214;48.012;7.862;2023-08-24T04:11:15;21.70;99.90
12303;DHT22;6214;48.012;7.862;2023-08-24T04:13:42;21.70;99.90
12303;DHT22;6214;48.012;7.862;2023-08-24T04:16:09;21.70;99.90
12303;DHT22;6214;48.012;7.862;2023-08-24T04:18:36;21.80;99.90
12303;DHT22;6214;48.012;7.862;2023-08-24T04:21:03;21.80;99.90
12303;DHT22;6214;48.012;7.862;2023-08-24T04:23:32;21.60;99.90
12303;DHT22;6214;48.012;7.862;2023-08-24T04:25:58;21.40;99.90
12303;DHT22;6214;48.012;7.862;2023-08-24T04:28:25;21.30;99.90
12303;DHT22;6214;48.012;7.862;2023-08-24T04:30:54;21.30;99.90
12303;DHT22;6214;48.012;7.862;2023-08-24T04:33:21;21.40;99.90
12303;DHT22;6214;48.012;7.862;2023-08-24T04:35:49;21.40;99.90
12303;DHT22;6214;48.012;7.862;2023-08-24T04:38:16;21.40;99.90
12303;DHT22;6214;48.012;7.862;2023-08-24T04:40:48;21.60;99.90
12303;DHT22;6214;48.012;7.862;2023-08-24T04:43:16;21.60;99.90
12303;DHT22;6214;48.012;7.862;2023-08-24T04:45:45;21.60;99.90
12303;DHT22;6214;48.012;7.862;2023-08-24T04:48:12;21.70;99.90
12303;DHT22;6214;48.012;7.862;2023-08-24T04:50:39;21.90;99.90
12303;DHT22;6214;48.012;7.862;2023-08-24T04:53:06;22.00;99.90
12303;DHT22;6214;48.012;7.862;2023-08-24T04:55:33;22.10;99.90
12303;DHT22;6214;48.012;7.862;2023-08-24T04:58:00;22.20;99.90
12303;DHT22;6214;48.012;7.862;2023-08-24T05:00:27;22.20;99.90
12303;DHT22;6214;48.012;7.862;2023-08-24T05:02:54;22.20;99.90
12303;DHT22;6214;48.012;7.862;2023-08-24T05:05:21;22.10;99.90
12303;DHT22;6214;48.012;7.862;2023-08-24T05:07:48;22.20;99.90
12303;DHT22;6214;48.012;7.862;2023-08-24T05:10:15;22.10;99.90
12303;DHT22;6214;48.012;7.862;2023-08-24T05:12:42;22.20;99.90
12303;DHT22;6214;48.012;7.862;2023-08-24T05:15:09;22.10;99.90
12303;DHT22;6214;48.012;7.862;2023-08-24T05:17:36;22.10;99.90
12303;DHT22;6214;48.012;7.862;2023-08-24T05:20:04;22.10;99.90
12303;DHT22;6214;48.012;7.862;2023-08-24T05:22:31;22.10;99.90
12303;DHT22;6214;48.012;7.862;2023-08-24T05:24:58;22.10;99.90
12303;DHT22;6214;48.012;7.862;2023-08-24T05:27:24;22.20;99.90
12303;DHT22;6214;48.012;7.862;2023-08-24T05:29:51;22.10;99.90
12303;DHT22;6214;48.012;7.862;2023-08-24T05:32:18;22.20;99.90
12303;DHT22;6214;48.012;7.862;2023-08-24T05:34:46;22.30;99.90
12303;DHT22;6214;48.012;7.862;2023-08-24T05:37:13;22.40;99.90
12303;DHT22;6214;48.012;7.862;2023-08-24T05:39:40;22.50;99.90
12303;DHT22;6214;48.012;7.862;2023-08-24T05:42:08;22.50;99.90
12303;DHT22;6214;48.012;7.862;2023-08-24T05:44:35;22.50;99.90
12303;DHT22;6214;48.012;7.862;2023-08-24T05:47:02;22.60;99.90
12303;DHT22;6214;48.012;7.862;2023-08-24T05:49:30;22.60;99.90
12303;DHT22;6214;48.012;7.862;2023-08-24T05:51:57;22.50;99.90
12303;DHT22;6214;48.012;7.862;2023-08-24T05:54:23;22.60;99.90
12303;DHT22;6214;48.012;7.862;2023-08-24T05:56:50;22.70;99.90
12303;DHT22;6214;48.012;7.862;2023-08-24T05:59:17;22.80;99.90
12303;DHT22;6214;48.012;7.862;2023-08-24T06:01:44;22.80;99.90
12303;DHT22;6214;48.012;7.862;2023-08-24T06:04:11;22.80;99.90
12303;DHT22;6214;48.012;7.862;2023-08-24T06:06:38;22.80;99.90
12303;DHT22;6214;48.012;7.862;2023-08-24T06:09:05;22.80;99.90
12303;DHT22;6214;48.012;7.862;2023-08-24T06:11:36;23.00;99.90
12303;DHT22;6214;48.012;7.862;2023-08-24T06:14:03;23.10;99.90
12303;DHT22;6214;48.012;7.862;2023-08-24T06:16:29;23.10;99.90
12303;DHT22;6214;48.012;7.862;2023-08-24T06:18:56;23.20;99.90
12303;DHT22;6214;48.012;7.862;2023-08-24T06:21:23;23.20;99.90
12303;DHT22;6214;48.012;7.862;2023-08-24T06:23:50;23.30;99.90
12303;DHT22;6214;48.012;7.862;2023-08-24T06:26:18;23.20;99.90
12303;DHT22;6214;48.012;7.862;2023-08-24T06:28:44;23.10;99.90
12303;DHT22;6214;48.012;7.862;2023-08-24T06:31:12;23.00;99.90
12303;DHT22;6214;48.012;7.862;2023-08-24T06:33:39;23.10;99.90
12303;DHT22;6214;48.012;7.862;2023-08-24T06:36:07;23.20;99.90
12303;DHT22;6214;48.012;7.862;2023-08-24T06:38:34;23.30;99.90
12303;DHT22;6214;48.012;7.862;2023-08-24T06:41:01;23.40;99.90
12303;DHT22;6214;48.012;7.862;2023-08-24T06:43:28;23.40;99.90
12303;DHT22;6214;48.012;7.862;2023-08-24T06:45:55;23.40;99.90
12303;DHT22;6214;48.012;7.862;2023-08-24T06:48:23;23.40;99.90
12303;DHT22;6214;48.012;7.862;2023-08-24T06:50:51;23.40;99.90
12303;DHT22;6214;48.012;7.862;2023-08-24T06:53:18;23.40;99.90
12303;DHT22;6214;48.012;7.862;2023-08-24T06:55:45;23.50;99.90
12303;DHT22;6214;48.012;7.862;2023-08-24T06:58:11;23.40;99.90
12303;DHT22;6214;48.012;7.862;2023-08-24T07:00:38;23.60;99.90
12303;DHT22;6214;48.012;7.862;2023-08-24T07:03:06;23.70;99.90
12303;DHT22;6214;48.012;7.862;2023-08-24T07:05:33;23.70;99.90
12303;DHT22;6214;48.012;7.862;2023-08-24T07:08:03;23.80;99.90
12303;DHT22;6214;48.012;7.862;2023-08-24T07:10:31;24.10;99.90
12303;DHT22;6214;48.012;7.862;2023-08-24T07:12:58;24.30;99.90
12303;DHT22;6214;48.012;7.862;2023-08-24T07:15:25;24.50;99.90
12303;DHT22;6214;48.012;7.862;2023-08-24T07:17:52;24.50;99.90
12303;DHT22;6214;48.012;7.862;2023-08-24T07:20:19;24.70;99.90
12303;DHT22;6214;48.012;7.862;2023-08-24T07:22:46;24.70;99.90
12303;DHT22;6214;48.012;7.862;2023-08-24T07:25:13;24.80;99.90
12303;DHT22;6214;48.012;7.862;2023-08-24T07:27:41;25.00;99.90
12303;DHT22;6214;48.012;7.862;2023-08-24T07:30:09;25.00;99.90
12303;DHT22;6214;48.012;7.862;2023-08-24T07:32:56;25.20;99.90
12303;DHT22;6214;48.012;7.862;2023-08-24T07:35:23;25.40;99.90
12303;DHT22;6214;48.012;7.862;2023-08-24T07:37:53;25.70;99.90
12303;DHT22;6214;48.012;7.862;2023-08-24T07:40:21;26.10;99.90
12303;DHT22;6214;48.012;7.862;2023-08-24T07:42:49;26.40;99.90
12303;DHT22;6214;48.012;7.862;2023-08-24T07:45:21;26.80;99.90
12303;DHT22;6214;48.012;7.862;2023-08-24T07:47:50;27.60;99.90
12303;DHT22;6214;48.012;7.862;2023-08-24T07:50:17;28.60;99.90
12303;DHT22;6214;48.012;7.862;2023-08-24T07:52:44;29.40;99.90
12303;DHT22;6214;48.012;7.862;2023-08-24T07:55:11;29.80;99.90
12303;DHT22;6214;48.012;7.862;2023-08-24T07:57:38;30.80;99.90
12303;DHT22;6214;48.012;7.862;2023-08-24T08:00:06;30.10;99.90
12303;DHT22;6214;48.012;7.862;2023-08-24T08:02:36;29.90;99.90
12303;DHT22;6214;48.012;7.862;2023-08-24T08:05:05;29.80;99.90
12303;DHT22;6214;48.012;7.862;2023-08-24T08:07:34;29.30;99.90
12303;DHT22;6214;48.012;7.862;2023-08-24T08:10:01;28.50;99.90
12303;DHT22;6214;48.012;7.862;2023-08-24T08:12:28;28.40;99.90
12303;DHT22;6214;48.012;7.862;2023-08-24T08:14:59;29.30;99.90
12303;DHT22;6214;48.012;7.862;2023-08-24T08:17:26;30.30;99.90
12303;DHT22;6214;48.012;7.862;2023-08-24T08:19:55;31.00;99.90
12303;DHT22;6214;48.012;7.862;2023-08-24T08:22:23;30.70;99.90
12303;DHT22;6214;48.012;7.862;2023-08-24T08:24:52;30.40;99.90
12303;DHT22;6214;48.012;7.862;2023-08-24T08:27:20;30.80;99.90
12303;DHT22;6214;48.012;7.862;2023-08-24T08:29:49;31.80;99.90
12303;DHT22;6214;48.012;7.862;2023-08-24T08:32:16;32.60;99.90
12303;DHT22;6214;48.012;7.862;2023-08-24T08:34:43;33.30;99.90
12303;DHT22;6214;48.012;7.862;2023-08-24T08:37:10;33.50;99.90
12303;DHT22;6214;48.012;7.862;2023-08-24T08:39:37;34.20;99.90
12303;DHT22;6214;48.012;7.862;2023-08-24T08:42:05;34.60;99.90
12303;DHT22;6214;48.012;7.862;2023-08-24T08:44:37;35.10;99.90
12303;DHT22;6214;48.012;7.862;2023-08-24T08:47:04;34.80;99.90
12303;DHT22;6214;48.012;7.862;2023-08-24T08:49:34;34.90;99.90
12303;DHT22;6214;48.012;7.862;2023-08-24T08:52:02;34.80;99.90
12303;DHT22;6214;48.012;7.862;2023-08-24T08:54:30;35.30;99.90
12303;DHT22;6214;48.012;7.862;2023-08-24T08:56:57;35.00;99.90
12303;DHT22;6214;48.012;7.862;2023-08-24T08:59:27;35.10;99.90
12303;DHT22;6214;48.012;7.862;2023-08-24T09:01:57;34.90;99.90
12303;DHT22;6214;48.012;7.862;2023-08-24T09:04:29;34.70;99.90
12303;DHT22;6214;48.012;7.862;2023-08-24T09:06:57;35.20;99.90
12303;DHT22;6214;48.012;7.862;2023-08-24T09:09:26;35.80;99.90
12303;DHT22;6214;48.012;7.862;2023-08-24T09:11:53;36.30;99.90
12303;DHT22;6214;48.012;7.862;2023-08-24T09:14:20;36.40;99.90
12303;DHT22;6214;48.012;7.862;2023-08-24T09:16:47;35.70;99.90
12303;DHT22;6214;48.012;7.862;2023-08-24T09:19:14;36.40;99.90
12303;DHT22;6214;48.012;7.862;2023-08-24T09:21:41;36.40;99.90
12303;DHT22;6214;48.012;7.862;2023-08-24T09:24:10;36.00;99.90
12303;DHT22;6214;48.012;7.862;2023-08-24T09:26:38;35.10;99.90
12303;DHT22;6214;48.012;7.862;2023-08-24T09:29:14;33.70;99.90
12303;DHT22;6214;48.012;7.862;2023-08-24T09:31:42;33.60;99.90
12303;DHT22;6214;48.012;7.862;2023-08-24T09:34:12;33.60;99.90
12303;DHT22;6214;48.012;7.862;2023-08-24T09:36:40;33.00;99.90
12303;DHT22;6214;48.012;7.862;2023-08-24T09:39:07;32.20;99.90
12303;DHT22;6214;48.012;7.862;2023-08-24T09:41:43;31.90;99.90
12303;DHT22;6214;48.012;7.862;2023-08-24T09:44:10;31.70;99.90
12303;DHT22;6214;48.012;7.862;2023-08-24T09:46:39;31.50;99.90
12303;DHT22;6214;48.012;7.862;2023-08-24T09:49:09;31.20;99.90
12303;DHT22;6214;48.012;7.862;2023-08-24T09:51:37;30.60;99.90
12303;DHT22;6214;48.012;7.862;2023-08-24T09:54:07;30.40;99.90
12303;DHT22;6214;48.012;7.862;2023-08-24T09:56:40;30.10;99.90
12303;DHT22;6214;48.012;7.862;2023-08-24T09:59:15;30.00;99.90
12303;DHT22;6214;48.012;7.862;2023-08-24T10:01:47;30.10;99.90
12303;DHT22;6214;48.012;7.862;2023-08-24T10:04:23;30.20;99.90
12303;DHT22;6214;48.012;7.862;2023-08-24T10:07:06;30.20;99.90
12303;DHT22;6214;48.012;7.862;2023-08-24T10:09:44;30.30;99.90
12303;DHT22;6214;48.012;7.862;2023-08-24T10:12:13;30.60;99.90
12303;DHT22;6214;48.012;7.862;2023-08-24T10:14:56;30.90;99.90
12303;DHT22;6214;48.012;7.862;2023-08-24T10:17:26;30.60;99.90
12303;DHT22;6214;48.012;7.862;2023-08-24T10:19:54;30.50;99.90
12303;DHT22;6214;48.012;7.862;2023-08-24T10:22:22;30.60;99.90
12303;DHT22;6214;48.012;7.862;2023-08-24T10:24:51;30.60;99.90
12303;DHT22;6214;48.012;7.862;2023-08-24T10:27:24;30.70;99.90
12303;DHT22;6214;48.012;7.862;2023-08-24T10:29:53;30.80;99.90
12303;DHT22;6214;48.012;7.862;2023-08-24T10:32:21;31.00;99.90
12303;DHT22;6214;48.012;7.862;2023-08-24T10:34:49;30.90;99.90
12303;DHT22;6214;48.012;7.862;2023-08-24T10:37:16;30.90;99.90
12303;DHT22;6214;48.012;7.862;2023-08-24T10:39:45;30.90;99.90
12303;DHT22;6214;48.012;7.862;2023-08-24T10:42:13;31.00;99.90
12303;DHT22;6214;48.012;7.862;2023-08-24T10:44:44;31.10;99.90
12303;DHT22;6214;48.012;7.862;2023-08-24T10:49:43;31.60;99.90
12303;DHT22;6214;48.012;7.862;2023-08-24T10:52:30;31.60;99.90
12303;DHT22;6214;48.012;7.862;2023-08-24T10:55:01;31.40;99.90
12303;DHT22;6214;48.012;7.862;2023-08-24T10:57:37;31.50;99.90
12303;DHT22;6214;48.012;7.862;2023-08-24T11:00:09;31.50;99.90
12303;DHT22;6214;48.012;7.862;2023-08-24T11:05:30;31.40;99.90
12303;DHT22;6214;48.012;7.862;2023-08-24T11:08:04;31.40;99.90
12303;DHT22;6214;48.012;7.862;2023-08-24T11:13:17;31.20;99.90
12303;DHT22;6214;48.012;7.862;2023-08-24T11:15:48;31.40;99.90
12303;DHT22;6214;48.012;7.862;2023-08-24T11:18:25;31.30;99.90
12303;DHT22;6214;48.012;7.862;2023-08-24T11:21:00;31.40;99.90
12303;DHT22;6214;48.012;7.862;2023-08-24T11:23:29;31.40;99.90
12303;DHT22;6214;48.012;7.862;2023-08-24T11:25:58;31.70;99.90
12303;DHT22;6214;48.012;7.862;2023-08-24T11:28:30;31.90;99.90
12303;DHT22;6214;48.012;7.862;2023-08-24T11:30:58;31.80;99.90
12303;DHT22;6214;48.012;7.862;2023-08-24T11:33:30;31.90;99.90
12303;DHT22;6214;48.012;7.862;2023-08-24T11:35:58;31.90;99.90
12303;DHT22;6214;48.012;7.862;2023-08-24T11:38:34;31.80;99.90
12303;DHT22;6214;48.012;7.862;2023-08-24T11:41:05;32.10;99.90
12303;DHT22;6214;48.012;7.862;2023-08-24T11:43:36;32.10;99.90
12303;DHT22;6214;48.012;7.862;2023-08-24T11:46:03;32.20;99.90
12303;DHT22;6214;48.012;7.862;2023-08-24T11:48:31;32.10;99.90
12303;DHT22;6214;48.012;7.862;2023-08-24T11:50:58;32.20;99.90
12303;DHT22;6214;48.012;7.862;2023-08-24T11:53:26;32.40;99.90
12303;DHT22;6214;48.012;7.862;2023-08-24T11:55:53;32.20;99.90
12303;DHT22;6214;48.012;7.862;2023-08-24T11:58:32;32.40;99.90
12303;DHT22;6214;48.012;7.862;2023-08-24T12:00:59;32.60;99.90
12303;DHT22;6214;48.012;7.862;2023-08-24T12:03:27;32.60;99.90
12303;DHT22;6214;48.012;7.862;2023-08-24T12:05:54;32.70;99.90
12303;DHT22;6214;48.012;7.862;2023-08-24T12:08:25;32.80;99.90
12303;DHT22;6214;48.012;7.862;2023-08-24T12:10:52;32.80;99.90
12303;DHT22;6214;48.012;7.862;2023-08-24T12:13:19;32.80;99.90
12303;DHT22;6214;48.012;7.862;2023-08-24T12:15:46;33.00;99.90
12303;DHT22;6214;48.012;7.862;2023-08-24T12:18:16;33.00;99.90
12303;DHT22;6214;48.012;7.862;2023-08-24T12:20:44;33.10;99.90
12303;DHT22;6214;48.012;7.862;2023-08-24T12:23:11;32.80;99.90
12303;DHT22;6214;48.012;7.862;2023-08-24T12:25:42;32.60;99.90
12303;DHT22;6214;48.012;7.862;2023-08-24T12:28:14;32.60;99.90
12303;DHT22;6214;48.012;7.862;2023-08-24T12:30:52;32.60;99.90
12303;DHT22;6214;48.012;7.862;2023-08-24T12:33:27;32.60;99.90
12303;DHT22;6214;48.012;7.862;2023-08-24T12:35:55;32.80;99.90
12303;DHT22;6214;48.012;7.862;2023-08-24T12:38:24;33.00;99.90
12303;DHT22;6214;48.012;7.862;2023-08-24T12:40:52;33.00;99.90
12303;DHT22;6214;48.012;7.862;2023-08-24T12:43:19;33.20;99.90
12303;DHT22;6214;48.012;7.862;2023-08-24T12:45:47;33.00;99.90
12303;DHT22;6214;48.012;7.862;2023-08-24T12:48:14;33.10;99.90
12303;DHT22;6214;48.012;7.862;2023-08-24T12:50:41;33.00;99.90
12303;DHT22;6214;48.012;7.862;2023-08-24T12:53:08;33.00;99.90
12303;DHT22;6214;48.012;7.862;2023-08-24T12:55:39;33.10;99.90
12303;DHT22;6214;48.012;7.862;2023-08-24T12:58:06;33.10;99.90
12303;DHT22;6214;48.012;7.862;2023-08-24T13:00:33;33.00;99.90
12303;DHT22;6214;48.012;7.862;2023-08-24T13:03:00;32.90;99.90
12303;DHT22;6214;48.012;7.862;2023-08-24T13:05:27;32.90;99.90
12303;DHT22;6214;48.012;7.862;2023-08-24T13:07:54;33.00;99.90
12303;DHT22;6214;48.012;7.862;2023-08-24T13:10:23;32.80;99.90
12303;DHT22;6214;48.012;7.862;2023-08-24T13:12:49;32.80;99.90
12303;DHT22;6214;48.012;7.862;2023-08-24T13:15:17;33.00;99.90
12303;DHT22;6214;48.012;7.862;2023-08-24T13:17:44;33.10;99.90
12303;DHT22;6214;48.012;7.862;2023-08-24T13:20:11;33.10;99.90
12303;DHT22;6214;48.012;7.862;2023-08-24T13:22:38;33.00;99.90
12303;DHT22;6214;48.012;7.862;2023-08-24T13:25:06;32.90;99.90
12303;DHT22;6214;48.012;7.862;2023-08-24T13:27:33;33.00;99.90
12303;DHT22;6214;48.012;7.862;2023-08-24T13:30:01;32.90;99.90
12303;DHT22;6214;48.012;7.862;2023-08-24T13:32:28;33.00;99.90
12303;DHT22;6214;48.012;7.862;2023-08-24T13:34:55;33.10;99.90
12303;DHT22;6214;48.012;7.862;2023-08-24T13:37:23;33.10;99.90
12303;DHT22;6214;48.012;7.862;2023-08-24T13:39:52;33.10;99.90
12303;DHT22;6214;48.012;7.862;2023-08-24T13:42:19;33.30;99.90
12303;DHT22;6214;48.012;7.862;2023-08-24T13:44:47;33.40;99.90
12303;DHT22;6214;48.012;7.862;2023-08-24T13:47:14;33.40;99.90
12303;DHT22;6214;48.012;7.862;2023-08-24T13:49:41;33.30;99.90
12303;DHT22;6214;48.012;7.862;2023-08-24T13:52:08;33.20;99.90
12303;DHT22;6214;48.012;7.862;2023-08-24T13:54:35;33.30;99.90
12303;DHT22;6214;48.012;7.862;2023-08-24T13:57:02;33.30;99.90
12303;DHT22;6214;48.012;7.862;2023-08-24T13:59:29;33.40;99.90
12303;DHT22;6214;48.012;7.862;2023-08-24T14:01:56;33.50;99.90
12303;DHT22;6214;48.012;7.862;2023-08-24T14:04:23;33.60;99.90
12303;DHT22;6214;48.012;7.862;2023-08-24T14:06:50;33.60;99.90
12303;DHT22;6214;48.012;7.862;2023-08-24T14:09:17;33.80;99.90
12303;DHT22;6214;48.012;7.862;2023-08-24T14:11:44;33.80;99.90
12303;DHT22;6214;48.012;7.862;2023-08-24T14:14:11;33.80;99.90
12303;DHT22;6214;48.012;7.862;2023-08-24T14:16:38;33.90;99.90
12303;DHT22;6214;48.012;7.862;2023-08-24T14:19:05;33.90;99.90
12303;DHT22;6214;48.012;7.862;2023-08-24T14:21:32;34.10;99.90
12303;DHT22;6214;48.012;7.862;2023-08-24T14:24:10;34.30;99.90
12303;DHT22;6214;48.012;7.862;2023-08-24T14:26:37;34.40;99.90
12303;DHT22;6214;48.012;7.862;2023-08-24T14:29:06;34.30;99.90
12303;DHT22;6214;48.012;7.862;2023-08-24T14:31:33;34.30;99.90
12303;DHT22;6214;48.012;7.862;2023-08-24T14:34:00;34.30;99.90
12303;DHT22;6214;48.012;7.862;2023-08-24T14:36:28;34.30;99.90
12303;DHT22;6214;48.012;7.862;2023-08-24T14:38:55;34.30;99.90
12303;DHT22;6214;48.012;7.862;2023-08-24T14:41:22;34.30;99.90
12303;DHT22;6214;48.012;7.862;2023-08-24T14:43:49;34.30;99.90
12303;DHT22;6214;48.012;7.862;2023-08-24T14:46:16;34.20;99.90
12303;DHT22;6214;48.012;7.862;2023-08-24T14:48:43;34.10;99.90
12303;DHT22;6214;48.012;7.862;2023-08-24T14:51:11;34.20;99.90
12303;DHT22;6214;48.012;7.862;2023-08-24T14:53:37;34.20;99.90
12303;DHT22;6214;48.012;7.862;2023-08-24T14:56:05;34.20;99.90
12303;DHT22;6214;48.012;7.862;2023-08-24T14:58:32;34.20;99.90
12303;DHT22;6214;48.012;7.862;2023-08-24T15:00:59;34.10;99.90
12303;DHT22;6214;48.012;7.862;2023-08-24T15:03:26;34.00;99.90
12303;DHT22;6214;48.012;7.862;2023-08-24T15:06:02;34.00;99.90
12303;DHT22;6214;48.012;7.862;2023-08-24T15:08:33;33.90;99.90
12303;DHT22;6214;48.012;7.862;2023-08-24T15:11:01;33.90;99.90
12303;DHT22;6214;48.012;7.862;2023-08-24T15:13:31;33.80;99.90
12303;DHT22;6214;48.012;7.862;2023-08-24T15:15:58;33.80;99.90
12303;DHT22;6214;48.012;7.862;2023-08-24T15:18:26;33.80;99.90
12303;DHT22;6214;48.012;7.862;2023-08-24T15:20:53;33.60;99.90
12303;DHT22;6214;48.012;7.862;2023-08-24T15:23:24;33.50;99.90
12303;DHT22;6214;48.012;7.862;2023-08-24T15:25:56;33.20;99.90
12303;DHT22;6214;48.012;7.862;2023-08-24T15:28:24;32.90;99.90
12303;DHT22;6214;48.012;7.862;2023-08-24T15:30:51;32.60;99.90
12303;DHT22;6214;48.012;7.862;2023-08-24T15:33:19;32.30;99.90
12303;DHT22;6214;48.012;7.862;2023-08-24T15:35:47;32.20;99.90
12303;DHT22;6214;48.012;7.862;2023-08-24T15:38:14;32.10;99.90
12303;DHT22;6214;48.012;7.862;2023-08-24T15:40:41;31.90;99.90
12303;DHT22;6214;48.012;7.862;2023-08-24T15:43:11;31.80;99.90
12303;DHT22;6214;48.012;7.862;2023-08-24T15:45:38;31.60;99.90
12303;DHT22;6214;48.012;7.862;2023-08-24T15:48:06;31.50;99.90
12303;DHT22;6214;48.012;7.862;2023-08-24T15:50:33;31.30;99.90
12303;DHT22;6214;48.012;7.862;2023-08-24T15:53:00;31.10;99.90
12303;DHT22;6214;48.012;7.862;2023-08-24T15:55:31;31.10;99.90
12303;DHT22;6214;48.012;7.862;2023-08-24T15:58:01;31.10;99.90
12303;DHT22;6214;48.012;7.862;2023-08-24T16:00:29;31.10;99.90